Time;durP1;ratioP1;P1;durP2;ratioP2;P2;SDS_P1;SDS_P2;PMS_P1;PMS_P2;Temp;Humidity;BMP_temperature;BMP_pressure;BME280_temperature;BME280_humidity;BME280_pressure;Samples;Min_cycle;Max_cycle;Signal;HPM_P1;HPM_P2
2024/01/16 00:02:01;;;;;;;5.77;1.67;;;;;;;-2.73;100.00;98927.45;5000290;56;1136742;-75
2024/01/16 00:07:06;;;;;;;16.80;4.00;;;;;;;-2.72;100.00;98939.93;4973005;56;1136969;-79
2024/01/16 00:12:12;;;;;;;6.33;1.73;;;;;;;-2.76;100.00;98959.97;4973965;57;1138372;-73
2024/01/16 00:17:18;;;;;;;5.47;1.70;;;;;;;-2.81;100.00;98966.27;4982969;56;1136817;-78
2024/01/16 00:22:23;;;;;;;6.05;1.32;;;;;;;-2.80;100.00;98993.35;4984072;56;1136928;-78
2024/01/16 00:27:29;;;;;;;4.27;1.37;;;;;;;-2.79;100.00;98995.48;4987542;57;1136919;-81
2024/01/16 00:32:34;;;;;;;4.10;1.40;;;;;;;-2.82;100.00;98999.50;4953056;55;1136885;-73
2024/01/16 00:37:40;;;;;;;7.45;2.00;;;;;;;-2.82;100.00;99006.81;4959420;57;1136915;-79
2024/01/16 00:42:46;;;;;;;6.97;2.50;;;;;;;-2.74;100.00;99020.20;4953946;56;1136722;-76
2024/01/16 00:47:51;;;;;;;10.93;3.17;;;;;;;-2.65;100.00;99021.08;4967691;56;1136465;-73
2024/01/16 00:52:57;;;;;;;4.23;2.37;;;;;;;-2.64;100.00;99023.22;4944491;57;1138740;-80
2024/01/16 00:58:03;;;;;;;3.90;2.30;;;;;;;-2.69;100.00;99036.81;4936594;55;1136933;-75
2024/01/16 01:03:08;;;;;;;2.15;1.77;;;;;;;-2.70;100.00;99037.73;4915413;55;1136561;-75
2024/01/16 01:08:14;;;;;;;2.70;0.90;;;;;;;-2.77;100.00;99058.34;4950240;57;1136787;-76
2024/01/16 01:13:19;;;;;;;1.40;0.93;;;;;;;-2.84;100.00;99066.38;4967337;57;1136668;-80
2024/01/16 01:18:25;;;;;;;1.60;0.98;;;;;;;-2.81;100.00;99065.86;4964001;56;1136732;-80
2024/01/16 01:23:32;;;;;;;3.30;1.00;;;;;;;-2.62;100.00;99067.98;4971401;57;1136747;-79
2024/01/16 01:28:40;;;;;;;2.97;1.40;;;;;;;-2.47;100.00;99082.78;5017182;57;1136386;-74
2024/01/16 01:33:46;;;;;;;2.20;1.30;;;;;;;-2.37;100.00;99091.78;4943085;57;1236506;-78
2024/01/16 01:38:51;;;;;;;2.43;1.10;;;;;;;-2.45;100.00;99113.32;4949880;56;1242715;-78
2024/01/16 01:43:57;;;;;;;3.50;2.10;;;;;;;-2.65;100.00;99115.98;4957868;57;1236790;-75
2024/01/16 01:49:02;;;;;;;4.95;2.77;;;;;;;-2.84;100.00;99129.77;4939230;57;1219046;-74
2024/01/16 01:54:09;;;;;;;8.33;4.43;;;;;;;-2.93;100.00;99137.11;4948741;57;1228617;-79
2024/01/16 01:59:16;;;;;;;8.68;3.83;;;;;;;-3.05;100.00;99135.05;4988061;57;1238856;-75
2024/01/16 02:04:23;;;;;;;4.20;3.50;;;;;;;-3.13;100.00;99141.03;4983331;58;1238062;-78
2024/01/16 02:09:28;;;;;;;3.27;1.47;;;;;;;-3.09;100.00;99146.45;4976027;57;1136884;-73
2024/01/16 02:14:34;;;;;;;2.77;1.07;;;;;;;-3.07;100.00;99154.54;4968334;57;1214676;-76
2024/01/16 02:19:40;;;;;;;5.73;2.63;;;;;;;-3.23;100.00;99150.48;4912361;57;1246429;-77
2024/01/16 02:24:46;;;;;;;12.53;3.90;;;;;;;-3.28;100.00;99153.72;4966170;57;1229887;-76
2024/01/16 02:29:51;;;;;;;27.23;5.70;;;;;;;-3.21;100.00;99153.81;4929060;58;1138842;-75
2024/01/16 02:34:57;;;;;;;6.20;1.90;;;;;;;-3.06;100.00;99176.06;4974722;58;1139027;-78
2024/01/16 02:40:06;;;;;;;15.07;3.37;;;;;;;-3.08;100.00;99181.75;4963938;57;1136718;-76
2024/01/16 02:45:10;;;;;;;15.70;4.80;;;;;;;-3.14;100.00;99181.55;4972816;58;1138428;-76
2024/01/16 02:50:16;;;;;;;18.37;6.10;;;;;;;-3.04;100.00;99182.83;4982283;56;1138896;-75
2024/01/16 02:55:21;;;;;;;6.33;2.37;;;;;;;-2.90;100.00;99184.80;4988958;57;1138719;-76
2024/01/16 03:00:27;;;;;;;2.30;1.53;;;;;;;-2.99;100.00;99194.27;4992935;57;1137093;-74
2024/01/16 03:05:33;;;;;;;3.67;1.70;;;;;;;-3.17;100.00;99210.13;4990568;56;1136546;-82
2024/01/16 03:10:38;;;;;;;3.87;1.53;;;;;;;-3.31;100.00;99215.05;4957890;57;1136735;-75
2024/01/16 03:15:44;;;;;;;3.67;1.30;;;;;;;-3.44;100.00;99220.34;4971631;56;1136493;-78
2024/01/16 03:20:49;;;;;;;2.97;1.40;;;;;;;-3.61;100.00;99244.28;4971944;56;1136586;-75
2024/01/16 03:25:55;;;;;;;6.70;2.03;;;;;;;-3.74;100.00;99240.06;4960299;57;1136723;-76
2024/01/16 03:31:01;;;;;;;3.60;1.93;;;;;;;-3.79;100.00;99248.44;5031682;56;1136447;-75
2024/01/16 03:36:06;;;;;;;6.30;1.40;;;;;;;-3.86;100.00;99243.59;4946590;56;1137073;-75
2024/01/16 03:41:15;;;;;;;1.30;1.20;;;;;;;-3.87;100.00;99245.78;4937693;58;1137036;-78
2024/01/16 03:46:20;;;;;;;2.13;1.30;;;;;;;-3.90;100.00;99248.88;4977353;58;1137062;-75
2024/01/16 03:51:26;;;;;;;9.23;1.50;;;;;;;-3.86;100.00;99248.31;5026944;57;1136673;-73
2024/01/16 03:56:31;;;;;;;4.17;1.20;;;;;;;-3.79;100.00;99270.39;4915773;57;1136808;-80
2024/01/16 04:01:37;;;;;;;2.07;1.53;;;;;;;-3.70;100.00;99270.50;5021553;57;1136992;-77
2024/01/16 04:06:43;;;;;;;3.60;1.00;;;;;;;-3.47;100.00;99288.50;5015122;57;1136500;-78
2024/01/16 04:11:53;;;;;;;3.60;1.50;;;;;;;-3.32;100.00;99303.39;5031480;56;1136551;-74
2024/01/16 04:16:58;;;;;;;6.55;2.33;;;;;;;-3.33;100.00;99310.75;4952197;57;1136583;-76
2024/01/16 04:22:05;;;;;;;8.87;3.40;;;;;;;-3.37;100.00;99304.05;5011394;57;1136838;-76
2024/01/16 04:27:13;;;;;;;9.70;3.90;;;;;;;-3.51;100.00;99319.72;5037477;56;1136538;-75
2024/01/16 04:32:18;;;;;;;9.53;3.63;;;;;;;-3.70;100.00;99330.77;4979871;57;1136544;-80
2024/01/16 04:37:24;;;;;;;7.95;3.55;;;;;;;-3.83;100.00;99332.59;4997039;57;1137102;-78
2024/01/16 04:42:29;;;;;;;11.05;4.37;;;;;;;-3.99;100.00;99334.91;4952817;57;1136986;-78
2024/01/16 04:47:35;;;;;;;8.80;3.00;;;;;;;-4.16;100.00;99336.82;4919024;57;1138624;-79
2024/01/16 04:52:40;;;;;;;7.23;3.20;;;;;;;-4.22;100.00;99330.58;4877592;58;1137087;-79
2024/01/16 04:57:46;;;;;;;11.07;3.13;;;;;;;-4.18;100.00;99333.89;4898458;58;1136591;-76
2024/01/16 05:02:52;;;;;;;15.10;3.63;;;;;;;-4.13;100.00;99341.03;4904047;56;1138839;-71
2024/01/16 05:07:57;;;;;;;14.97;5.60;;;;;;;-4.08;100.00;99342.98;4870151;58;1138740;-71
2024/01/16 05:13:03;;;;;;;11.80;4.90;;;;;;;-4.06;100.00;99347.19;4935021;57;1139349;-71
2024/01/16 05:18:09;;;;;;;11.57;4.77;;;;;;;-4.05;100.00;99350.17;4935009;57;1138820;-72
2024/01/16 05:23:14;;;;;;;11.05;5.03;;;;;;;-4.12;100.00;99358.18;4966828;56;1138667;-72
2024/01/16 05:28:20;;;;;;;10.50;4.20;;;;;;;-4.17;100.00;99365.27;4949888;57;1138515;-71
2024/01/16 05:33:27;;;;;;;14.53;3.50;;;;;;;-4.18;100.00;99373.91;4971018;57;1138577;-71
2024/01/16 05:38:33;;;;;;;12.10;4.13;;;;;;;-4.08;100.00;99369.64;4948773;57;1138495;-72
2024/01/16 05:43:39;;;;;;;12.43;5.05;;;;;;;-3.97;100.00;99380.86;4887769;57;1138826;-71
2024/01/16 05:48:45;;;;;;;8.75;4.10;;;;;;;-3.86;100.00;99386.94;4956003;56;1138987;-71
2024/01/16 05:53:50;;;;;;;8.00;4.80;;;;;;;-3.91;100.00;99391.81;4964201;56;1136747;-72
2024/01/16 05:58:56;;;;;;;23.87;10.40;;;;;;;-4.07;100.00;99401.02;5011852;56;1136508;-72
2024/01/16 06:04:02;;;;;;;20.13;7.90;;;;;;;-4.33;100.00;99410.14;5017245;57;1140921;-73
2024/01/16 06:09:08;;;;;;;12.58;5.58;;;;;;;-4.44;100.00;99414.84;4961673;57;1138801;-73
2024/01/16 06:14:19;;;;;;;13.80;5.37;;;;;;;-4.47;100.00;99421.39;4925511;56;1138779;-72
2024/01/16 06:19:21;;;;;;;13.10;6.34;;;;;;;-4.32;100.00;99423.45;4904644;57;1139044;-70
2024/01/16 06:24:27;;;;;;;20.12;6.58;;;;;;;-4.18;100.00;99435.42;4967270;56;1138808;-72
2024/01/16 06:29:32;;;;;;;20.73;7.73;;;;;;;-4.08;100.00;99441.94;4936588;57;1138665;-76
2024/01/16 06:34:38;;;;;;;29.53;10.17;;;;;;;-4.03;100.00;99452.95;5038770;58;1138648;-75
2024/01/16 06:39:43;;;;;;;27.97;10.63;;;;;;;-4.05;100.00;99456.48;5038952;57;1140647;-78
2024/01/16 06:44:49;;;;;;;31.90;11.50;;;;;;;-4.10;100.00;99468.25;4936601;58;1140931;-80
2024/01/16 06:49:54;;;;;;;32.80;12.07;;;;;;;-4.12;100.00;99485.53;5020030;58;1140789;-81
2024/01/16 06:55:00;;;;;;;30.35;9.53;;;;;;;-4.17;100.00;99487.89;5044699;57;1141169;-81
2024/01/16 07:00:07;;;;;;;37.75;11.15;;;;;;;-4.25;100.00;99504.91;5025253;57;1139095;-79
2024/01/16 07:05:14;;;;;;;38.43;11.67;;;;;;;-4.31;100.00;99505.98;4947130;56;1141052;-78
2024/01/16 07:10:22;;;;;;;149.33;45.37;;;;;;;-4.32;100.00;99511.20;4949811;57;1141323;-79
2024/01/16 07:15:28;;;;;;;176.33;55.23;;;;;;;-4.40;100.00;99532.08;4929399;57;1142917;-79
2024/01/16 07:20:33;;;;;;;183.90;53.40;;;;;;;-4.44;100.00;99547.73;4933879;57;1143134;-79
2024/01/16 07:25:39;;;;;;;113.80;34.77;;;;;;;-4.46;100.00;99554.67;4978313;57;1143046;-81
2024/01/16 07:30:45;;;;;;;105.00;31.55;;;;;;;-4.52;100.00;99560.02;4979124;56;1142966;-81
2024/01/16 07:35:51;;;;;;;87.50;27.37;;;;;;;-4.62;100.00;99575.80;4962234;56;1151622;-80
2024/01/16 07:40:56;;;;;;;54.20;19.37;;;;;;;-4.64;100.00;99591.77;4990812;56;1140916;-81
2024/01/16 07:46:02;;;;;;;89.30;24.70;;;;;;;-4.60;100.00;99597.69;5003461;56;1141062;-77
2024/01/16 07:51:08;;;;;;;72.53;24.93;;;;;;;-4.46;100.00;99608.42;4976695;55;1140967;-77
2024/01/16 07:56:14;;;;;;;211.80;68.77;;;;;;;-4.21;100.00;99616.67;4967117;56;1141022;-79
2024/01/16 08:01:21;;;;;;;145.57;50.73;;;;;;;-3.94;100.00;99617.05;4976305;56;1143117;-82
2024/01/16 08:06:27;;;;;;;116.30;41.70;;;;;;;-3.66;100.00;99613.94;4977302;57;1143070;-82
2024/01/16 08:11:35;;;;;;;80.07;28.83;;;;;;;-3.38;100.00;99615.14;4993637;57;1142828;-77
2024/01/16 08:16:40;;;;;;;57.90;20.53;;;;;;;-2.99;100.00;99623.63;4958786;55;1140821;-78
2024/01/16 08:21:45;;;;;;;216.27;65.73;;;;;;;-2.75;100.00;99625.30;4942596;56;1140754;-77
2024/01/16 08:26:51;;;;;;;77.87;27.97;;;;;;;-2.78;100.00;99647.88;5007593;55;1146245;-81
2024/01/16 08:31:56;;;;;;;101.87;33.77;;;;;;;-2.80;100.00;99650.97;5026361;56;1141015;-77
2024/01/16 08:37:04;;;;;;;79.00;29.80;;;;;;;-2.92;100.00;99652.27;4903896;57;1142799;-77
2024/01/16 08:42:11;;;;;;;57.58;23.05;;;;;;;-3.12;100.00;99656.02;4919493;56;1140821;-82
2024/01/16 08:47:16;;;;;;;29.57;10.17;;;;;;;-3.28;100.00;99667.35;4948684;57;1140684;-78
2024/01/16 08:52:22;;;;;;;19.03;7.00;;;;;;;-3.38;100.00;99668.13;4968612;56;1140710;-77
2024/01/16 08:57:27;;;;;;;15.63;5.15;;;;;;;-3.37;100.00;99666.39;4998164;57;1138438;-78
2024/01/16 09:02:33;;;;;;;9.37;3.63;;;;;;;-3.34;100.00;99657.20;4941840;57;1138743;-79
2024/01/16 09:07:39;;;;;;;8.83;3.70;;;;;;;-3.36;100.00;99670.19;4925354;57;1136469;-81
2024/01/16 09:12:44;;;;;;;3.93;2.00;;;;;;;-3.44;100.00;99680.41;5009484;56;1136657;-78
2024/01/16 09:17:50;;;;;;;4.87;2.50;;;;;;;-3.44;100.00;99680.41;4926410;57;1227497;-79
2024/01/16 09:22:55;;;;;;;11.83;4.80;;;;;;;-3.39;100.00;99677.23;4959202;57;1136482;-77
2024/01/16 09:28:01;;;;;;;8.97;3.43;;;;;;;-3.33;100.00;99695.09;4986600;58;1138721;-80
2024/01/16 09:33:06;;;;;;;3.60;2.00;;;;;;;-3.23;100.00;99701.66;4897203;57;1136808;-80
2024/01/16 09:38:12;;;;;;;6.03;3.33;;;;;;;-3.22;100.00;99702.91;4966438;57;1136428;-80
2024/01/16 09:43:18;;;;;;;3.23;1.80;;;;;;;-3.18;100.00;99693.27;4890376;58;1136735;-79
2024/01/16 09:48:23;;;;;;;5.40;2.03;;;;;;;-3.17;100.00;99697.55;4930902;56;1136968;-81
2024/01/16 09:53:29;;;;;;;4.87;1.90;;;;;;;-3.15;100.00;99715.16;4906639;57;1136471;-79
2024/01/16 09:58:37;;;;;;;3.17;1.92;;;;;;;-3.12;100.00;99714.20;4942052;57;1136598;-80
2024/01/16 10:03:47;;;;;;;9.80;2.70;;;;;;;-3.10;100.00;99728.78;4955682;56;1136321;-80
2024/01/16 10:08:53;;;;;;;5.87;2.53;;;;;;;-3.08;100.00;99729.58;4959498;57;1136786;-78
2024/01/16 10:14:01;;;;;;;7.53;2.80;;;;;;;-3.00;100.00;99728.84;4969972;56;1136657;-80
2024/01/16 10:19:06;;;;;;;7.78;3.25;;;;;;;-2.82;100.00;99744.63;4964480;57;1136868;-81
2024/01/16 10:24:15;;;;;;;7.23;2.87;;;;;;;-2.72;100.00;99743.38;4949371;57;1136695;-84
2024/01/16 10:29:20;;;;;;;2.97;1.87;;;;;;;-2.62;100.00;99752.08;4982306;55;1136524;-82
2024/01/16 10:34:26;;;;;;;4.50;2.55;;;;;;;-2.59;100.00;99754.53;4961339;57;1136717;-80
2024/01/16 10:39:32;;;;;;;11.80;4.17;;;;;;;-2.62;100.00;99752.08;4988299;57;1136680;-79
2024/01/16 10:44:38;;;;;;;6.03;2.93;;;;;;;-2.67;100.00;99746.21;4961171;56;1138665;-79
2024/01/16 10:49:43;;;;;;;8.00;2.37;;;;;;;-2.65;100.00;99748.30;4933199;55;1136703;-79
2024/01/16 10:54:50;;;;;;;39.23;11.50;;;;;;;-2.63;100.00;99750.83;4995783;56;1136870;-84
2024/01/16 11:00:08;;;;;;;10.08;4.60;;;;;;;-2.59;100.00;99750.64;4956862;57;1140850;-80
2024/01/16 11:05:15;;;;;;;12.73;3.90;;;;;;;-2.60;100.00;99741.67;4946624;58;1138405;-76
2024/01/16 11:10:21;;;;;;;11.80;5.35;;;;;;;-2.53;100.00;99739.23;4966064;57;1139005;-76
2024/01/16 11:15:33;;;;;;;16.07;5.83;;;;;;;-2.38;100.00;99739.12;5001399;56;1138858;-79
2024/01/16 11:20:38;;;;;;;15.43;3.00;;;;;;;-2.25;100.00;99744.23;4998644;55;1138991;-79
2024/01/16 11:25:44;;;;;;;10.20;2.97;;;;;;;-2.33;100.00;99760.52;5017724;56;1138944;-78
2024/01/16 11:30:50;;;;;;;2.45;1.92;;;;;;;-2.45;100.00;99760.98;5036095;56;1139763;-80
2024/01/16 11:35:55;;;;;;;6.13;3.47;;;;;;;-2.52;100.00;99774.58;5005112;56;1136362;-79
2024/01/16 11:41:01;;;;;;;9.27;3.03;;;;;;;-2.55;100.00;99782.45;5011811;56;1136534;-76
2024/01/16 11:46:10;;;;;;;6.20;2.73;;;;;;;-2.54;100.00;99787.58;4952950;57;1136679;-77
2024/01/16 11:51:26;;;;;;;5.77;1.50;;;;;;;-2.63;100.00;99793.09;4968090;57;1136841;-82
2024/01/16 11:56:55;;;;;;;18.23;4.83;;;;;;;-2.65;100.00;99784.98;4982053;57;1136552;-75
2024/01/16 12:02:02;;;;;;;12.20;1.83;;;;;;;-2.64;100.00;99788.81;4921725;57;1139201;-74
2024/01/16 12:07:08;;;;;;;9.48;3.02;;;;;;;-2.58;100.00;99787.73;4979426;56;1138697;-76
2024/01/16 12:12:18;;;;;;;7.40;2.10;;;;;;;-2.64;100.00;99795.28;4985631;56;1137089;-77
2024/01/16 12:17:23;;;;;;;4.15;1.62;;;;;;;-2.65;100.00;99789.71;4962947;55;1136696;-77
2024/01/16 12:22:30;;;;;;;3.43;1.43;;;;;;;-2.63;100.00;99788.36;5016905;57;1137279;-76
2024/01/16 12:27:36;;;;;;;4.43;1.83;;;;;;;-2.54;100.00;99786.73;5007125;57;1136709;-80
2024/01/16 12:32:42;;;;;;;6.57;2.70;;;;;;;-2.46;100.00;99786.47;5011169;56;1136884;-78
2024/01/16 12:38:03;;;;;;;10.17;3.43;;;;;;;-2.41;100.00;99785.38;5020327;57;1136860;-80
2024/01/16 12:43:10;;;;;;;10.23;3.97;;;;;;;-2.38;100.00;99789.16;4968394;57;1138749;-74
2024/01/16 12:48:19;;;;;;;10.47;3.87;;;;;;;-2.27;100.00;99787.02;4905041;56;1138598;-76
2024/01/16 12:53:25;;;;;;;13.00;3.70;;;;;;;-2.10;100.00;99794.16;4969081;56;1138739;-81
2024/01/16 12:58:37;;;;;;;13.33;4.90;;;;;;;-1.85;100.00;99789.75;4984649;56;1138589;-81
2024/01/16 13:03:43;;;;;;;10.82;4.10;;;;;;;-1.37;100.00;99783.95;4949952;57;1138986;-80
2024/01/16 13:08:52;;;;;;;9.90;4.20;;;;;;;-1.00;100.00;99788.02;4932507;57;1138436;-76
2024/01/16 13:14:04;;;;;;;11.27;3.63;;;;;;;-0.94;100.00;99790.38;4923396;56;1136745;-78
2024/01/16 13:19:10;;;;;;;11.56;6.02;;;;;;;-0.79;100.00;99798.81;4990862;57;1138989;-78
2024/01/16 13:24:17;;;;;;;17.17;6.87;;;;;;;-0.75;100.00;99789.95;4952272;55;1139221;-80
2024/01/16 13:29:23;;;;;;;14.33;5.60;;;;;;;-0.70;100.00;99793.66;4936613;57;1138615;-81
2024/01/16 13:34:29;;;;;;;18.15;7.75;;;;;;;-0.82;100.00;99789.84;4909343;57;1138950;-71
2024/01/16 13:39:38;;;;;;;18.97;8.17;;;;;;;-0.63;100.00;99794.25;5007897;57;1138916;-80
2024/01/16 13:44:41;;;;;;;16.70;7.20;;;;;;;-0.54;100.00;99802.48;4965937;56;1138842;-77
2024/01/16 13:49:47;;;;;;;19.33;7.93;;;;;;;-0.54;100.00;99802.48;4965807;56;1138787;-78
2024/01/16 13:54:53;;;;;;;18.77;7.33;;;;;;;-0.73;100.00;99804.17;5002074;57;1138922;-78
2024/01/16 13:59:59;;;;;;;28.90;9.33;;;;;;;-0.92;100.00;99805.88;4999848;56;1138815;-78
2024/01/16 14:05:10;;;;;;;18.57;7.40;;;;;;;-1.07;100.00;99803.48;5001490;56;1138938;-79
2024/01/16 14:10:13;;;;;;;30.37;10.08;;;;;;;-1.20;100.00;99806.16;4944067;57;1138847;-79
2024/01/16 14:15:24;;;;;;;150.67;38.63;;;;;;;-1.21;100.00;99813.55;4933148;56;1141130;-83
2024/01/16 14:20:29;;;;;;;17.67;8.17;;;;;;;-1.35;100.00;99815.86;4918045;56;1143100;-77
2024/01/16 14:25:36;;;;;;;145.63;45.87;;;;;;;-1.44;100.00;99813.20;4909724;57;1139265;-79
2024/01/16 14:30:42;;;;;;;237.32;83.03;;;;;;;-1.44;100.00;99814.49;4961828;57;1143075;-77
2024/01/16 14:35:48;;;;;;;463.70;172.40;;;;;;;-1.46;100.00;99812.41;4939023;58;1142848;-79
2024/01/16 14:40:55;;;;;;;39.90;15.87;;;;;;;-1.43;100.00;99811.00;4908417;57;1144969;-75
2024/01/16 14:46:03;;;;;;;86.20;47.03;;;;;;;-1.50;100.00;99824.64;4960268;56;1141054;-80
2024/01/16 14:51:08;;;;;;;23.93;10.03;;;;;;;-1.49;100.00;99831.97;4923850;57;1140673;-79
2024/01/16 14:56:14;;;;;;;19.05;7.30;;;;;;;-1.51;100.00;99837.22;4963449;57;1141186;-77
2024/01/16 15:01:20;;;;;;;32.17;11.20;;;;;;;-1.58;100.00;99843.56;4973064;57;1138981;-78
2024/01/16 15:06:26;;;;;;;23.13;8.47;;;;;;;-1.61;100.00;99845.42;4947144;57;1140897;-75
2024/01/16 15:11:32;;;;;;;21.60;7.00;;;;;;;-1.65;100.00;99843.39;4944375;56;1139210;-77
2024/01/16 15:16:37;;;;;;;30.80;11.97;;;;;;;-1.68;100.00;99858.24;4944030;56;1138946;-78
2024/01/16 15:21:43;;;;;;;19.13;6.57;;;;;;;-1.67;100.00;99856.02;4960563;57;1141218;-76
2024/01/16 15:26:48;;;;;;;23.40;7.80;;;;;;;-1.66;100.00;99854.66;4935818;57;1138796;-77
2024/01/16 15:31:54;;;;;;;53.53;17.93;;;;;;;-1.62;100.00;99850.21;4955046;57;1138807;-77
2024/01/16 15:37:01;;;;;;;56.60;17.90;;;;;;;-1.58;100.00;99855.23;4990963;58;1140872;-78
2024/01/16 15:42:06;;;;;;;84.97;32.37;;;;;;;-1.52;100.00;99853.67;4975913;56;1149318;-79
2024/01/16 15:47:12;;;;;;;39.80;14.97;;;;;;;-1.48;100.00;99851.36;4972552;57;1150103;-76
2024/01/16 15:52:17;;;;;;;49.80;19.75;;;;;;;-1.51;100.00;99854.52;4990047;57;1141008;-78
2024/01/16 15:57:23;;;;;;;52.80;17.67;;;;;;;-1.58;100.00;99853.94;4933805;56;1140776;-75
2024/01/16 16:02:29;;;;;;;41.13;14.60;;;;;;;-1.63;100.00;99858.44;4928307;57;1141174;-76
2024/01/16 16:07:35;;;;;;;41.70;14.67;;;;;;;-1.69;100.00;99857.84;4949289;57;1141018;-79
2024/01/16 16:12:40;;;;;;;48.73;16.63;;;;;;;-1.72;100.00;99852.33;4953356;57;1140797;-77
2024/01/16 16:17:46;;;;;;;40.70;13.87;;;;;;;-1.78;100.00;99847.36;4939987;58;1140630;-76
2024/01/16 16:22:53;;;;;;;44.03;18.00;;;;;;;-1.81;100.00;99859.13;4999003;56;1140925;-79
2024/01/16 16:27:58;;;;;;;83.27;22.23;;;;;;;-1.83;100.00;99851.86;4869018;57;1140933;-78
2024/01/16 16:33:04;;;;;;;44.47;14.63;;;;;;;-1.84;100.00;99859.27;4968839;57;1141372;-77
2024/01/16 16:38:10;;;;;;;36.28;13.22;;;;;;;-1.85;100.00;99858.88;4989026;57;1141116;-78
2024/01/16 16:43:15;;;;;;;57.33;20.75;;;;;;;-1.88;100.00;99858.53;4961095;57;1140792;-77
2024/01/16 16:48:21;;;;;;;50.13;16.37;;;;;;;-1.97;100.00;99851.53;4993352;56;1140928;-79
2024/01/16 16:53:26;;;;;;;153.05;52.00;;;;;;;-1.99;100.00;99850.77;4930873;55;1140784;-78
2024/01/16 16:58:32;;;;;;;34.03;11.90;;;;;;;-2.01;100.00;99844.80;4979418;57;1143098;-76
2024/01/16 17:03:39;;;;;;;25.87;9.87;;;;;;;-2.07;100.00;99847.61;4968606;56;1140975;-77
2024/01/16 19:37:37;;;;;;;29.43;13.80;;;;;;;-2.43;100.00;99808.34;4929820;58;1140881;-79
2024/01/16 19:42:44;;;;;;;43.17;16.60;;;;;;;-2.46;100.00;99804.59;4966459;57;1141126;-78
2024/01/16 19:47:50;;;;;;;42.00;17.05;;;;;;;-2.46;100.00;99812.36;4907673;57;1141095;-78
2024/01/16 19:52:57;;;;;;;39.67;17.73;;;;;;;-2.46;100.00;99804.59;4947920;57;1141075;-76
2024/01/16 19:58:03;;;;;;;45.00;20.60;;;;;;;-2.45;100.00;99802.41;4963413;57;1141349;-77
2024/01/16 20:03:11;;;;;;;50.80;25.37;;;;;;;-2.43;100.00;99799.28;4918832;57;1141003;-76
2024/01/16 20:08:16;;;;;;;47.50;20.97;;;;;;;-2.43;100.00;99796.69;4910692;57;1141017;-78
2024/01/16 20:13:25;;;;;;;40.23;17.97;;;;;;;-2.39;100.00;99795.69;4936952;57;1141053;-79
2024/01/16 20:18:31;;;;;;;44.18;19.98;;;;;;;-2.36;100.00;99787.81;4959286;57;1140976;-77
2024/01/16 20:23:38;;;;;;;48.13;21.27;;;;;;;-2.32;100.00;99779.04;4910900;57;1150103;-78
2024/01/16 20:28:43;;;;;;;63.80;27.00;;;;;;;-2.25;100.00;99792.98;4838849;58;1141093;-79
2024/01/16 20:33:49;;;;;;;57.53;26.30;;;;;;;-2.16;100.00;99784.05;4970438;57;1140770;-77
2024/01/16 20:38:55;;;;;;;53.28;22.65;;;;;;;-2.12;100.00;99797.25;4967317;56;1140792;-77
2024/01/16 20:44:00;;;;;;;71.17;25.30;;;;;;;-2.16;100.00;99794.41;4960143;56;1140741;-79
2024/01/16 20:49:06;;;;;;;58.17;21.70;;;;;;;-2.19;100.00;99787.59;4961901;57;1140849;-79
2024/01/16 20:54:13;;;;;;;50.47;17.53;;;;;;;-2.18;100.00;99783.25;4924687;56;1140966;-79
2024/01/16 20:59:19;;;;;;;38.10;16.90;;;;;;;-2.18;100.00;99794.45;4879597;58;1141142;-77
2024/01/16 21:04:24;;;;;;;36.17;16.07;;;;;;;-2.18;100.00;99801.38;4938908;57;1141031;-78
2024/01/16 21:09:31;;;;;;;48.17;15.83;;;;;;;-2.20;100.00;99794.12;4931292;57;1140646;-76
2024/01/16 21:14:36;;;;;;;32.63;15.20;;;;;;;-2.21;100.00;99804.93;4914412;57;1140745;-78
2024/01/16 21:19:42;;;;;;;37.35;14.95;;;;;;;-2.23;100.00;99800.70;4933371;57;1141014;-78
2024/01/16 21:24:48;;;;;;;57.20;21.53;;;;;;;-2.25;100.00;99799.91;4955333;57;1140852;-77
2024/01/16 21:29:55;;;;;;;64.87;25.67;;;;;;;-2.20;100.00;99794.96;4904701;57;1140820;-78
2024/01/16 21:35:00;;;;;;;47.73;19.20;;;;;;;-2.14;100.00;99793.42;4961850;57;1140851;-77
2024/01/16 21:40:08;;;;;;;43.20;14.37;;;;;;;-2.12;100.00;99785.14;4926968;57;1140823;-76
2024/01/16 21:45:14;;;;;;;38.07;15.77;;;;;;;-2.09;100.00;99784.64;4902381;58;1140492;-79
2024/01/16 21:50:19;;;;;;;44.37;15.63;;;;;;;-2.08;100.00;99780.70;4940526;57;1140744;-76
2024/01/16 21:55:25;;;;;;;32.93;13.50;;;;;;;-2.05;100.00;99794.00;4925621;57;1141923;-78
2024/01/16 22:00:31;;;;;;;34.60;14.47;;;;;;;-2.02;100.00;99789.55;4881700;57;1140911;-78
2024/01/16 22:05:40;;;;;;;30.47;11.90;;;;;;;-1.97;100.00;99791.94;4921806;58;1140866;-79
2024/01/16 22:10:44;;;;;;;28.47;13.17;;;;;;;-1.94;100.00;99790.09;4820031;58;1140947;-78
2024/01/16 22:15:52;;;;;;;27.30;10.70;;;;;;;-1.90;100.00;99793.41;4919859;58;1141094;-79
2024/01/16 22:20:58;;;;;;;28.20;12.77;;;;;;;-1.87;100.00;99798.48;4842374;58;1141039;-79
2024/01/16 22:26:04;;;;;;;30.80;10.57;;;;;;;-1.85;100.00;99807.05;4933044;57;1140821;-79
2024/01/16 22:31:10;;;;;;;33.87;12.60;;;;;;;-1.82;100.00;99809.50;5009588;56;1140538;-78
2024/01/16 22:36:15;;;;;;;18.90;8.37;;;;;;;-1.81;100.00;99806.84;4942437;57;1140635;-78
2024/01/16 22:41:21;;;;;;;26.43;11.17;;;;;;;-1.79;100.00;99804.20;4950263;56;1138543;-78
2024/01/16 22:46:27;;;;;;;23.05;11.08;;;;;;;-1.78;100.00;99804.14;4946723;56;1141804;-77
2024/01/16 22:51:32;;;;;;;20.63;9.20;;;;;;;-1.78;100.00;99800.70;4952900;56;1140926;-78
2024/01/16 22:56:38;;;;;;;30.43;11.87;;;;;;;-1.79;100.00;99801.16;4900113;57;1138832;-78
2024/01/16 23:01:48;;;;;;;22.48;8.93;;;;;;;-1.82;100.00;99788.31;4953795;57;1140947;-78
2024/01/16 23:06:53;;;;;;;280.20;63.43;;;;;;;-1.78;100.00;99791.19;4972981;57;1138678;-78
2024/01/16 23:11:59;;;;;;;241.27;47.30;;;;;;;-1.77;100.00;99787.69;4943461;56;1142767;-78
2024/01/16 23:17:05;;;;;;;115.27;23.97;;;;;;;-1.77;100.00;99785.09;4959195;57;1142742;-78
2024/01/16 23:22:12;;;;;;;65.70;16.47;;;;;;;-1.78;100.00;99783.86;4919579;56;1142949;-78
2024/01/16 23:27:17;;;;;;;159.87;27.53;;;;;;;-1.83;100.00;99775.41;5045489;55;1140954;-78
2024/01/16 23:32:24;;;;;;;34.60;13.00;;;;;;;-1.85;100.00;99779.84;4985626;56;1143170;-78
2024/01/16 23:37:30;;;;;;;27.73;10.37;;;;;;;-1.85;100.00;99781.13;4929953;57;1141148;-78
2024/01/16 23:42:38;;;;;;;35.03;12.03;;;;;;;-1.83;100.00;99778.00;4974206;57;1141015;-79
2024/01/16 23:47:43;;;;;;;28.87;11.90;;;;;;;-1.80;100.00;99776.14;4957031;57;1140892;-78
2024/01/16 23:52:53;;;;;;;31.80;11.73;;;;;;;-1.77;100.00;99766.11;4842726;57;1141107;-79
2024/01/16 23:57:58;;;;;;;25.03;11.60;;;;;;;-1.76;100.00;99769.09;4928478;57;1141021;-78
